sensor_id;sensor_type;location;lat;lon;timestamp;P1;durP1;ratioP1;P2;durP2;ratioP2
20776;SDS011;10548;47.504;8.248;2022-12-18T00:01:20;51.00;;;31.07;;
20776;SDS011;10548;47.504;8.248;2022-12-18T00:03:50;55.60;;;32.23;;
20776;SDS011;10548;47.504;8.248;2022-12-18T00:06:18;54.63;;;31.33;;
20776;SDS011;10548;47.504;8.248;2022-12-18T00:08:46;53.23;;;30.17;;
20776;SDS011;10548;47.504;8.248;2022-12-18T00:11:15;58.33;;;33.63;;
20776;SDS011;10548;47.504;8.248;2022-12-18T00:13:45;46.80;;;27.47;;
20776;SDS011;10548;47.504;8.248;2022-12-18T00:16:14;52.70;;;30.50;;
20776;SDS011;10548;47.504;8.248;2022-12-18T00:18:43;56.50;;;32.47;;
20776;SDS011;10548;47.504;8.248;2022-12-18T00:21:11;49.90;;;29.33;;
20776;SDS011;10548;47.504;8.248;2022-12-18T00:23:39;55.87;;;33.03;;
20776;SDS011;10548;47.504;8.248;2022-12-18T00:26:19;50.43;;;30.57;;
20776;SDS011;10548;47.504;8.248;2022-12-18T00:28:57;55.97;;;33.40;;
20776;SDS011;10548;47.504;8.248;2022-12-18T00:31:31;58.97;;;34.00;;
20776;SDS011;10548;47.504;8.248;2022-12-18T00:33:59;57.03;;;33.23;;
20776;SDS011;10548;47.504;8.248;2022-12-18T00:36:28;60.87;;;35.37;;
20776;SDS011;10548;47.504;8.248;2022-12-18T00:38:58;55.63;;;31.87;;
20776;SDS011;10548;47.504;8.248;2022-12-18T00:41:27;56.80;;;32.93;;
20776;SDS011;10548;47.504;8.248;2022-12-18T00:44:14;57.23;;;33.10;;
20776;SDS011;10548;47.504;8.248;2022-12-18T00:46:42;57.97;;;34.27;;
20776;SDS011;10548;47.504;8.248;2022-12-18T00:49:11;56.33;;;31.63;;
20776;SDS011;10548;47.504;8.248;2022-12-18T00:51:38;59.60;;;33.93;;
20776;SDS011;10548;47.504;8.248;2022-12-18T00:54:06;58.60;;;32.00;;
20776;SDS011;10548;47.504;8.248;2022-12-18T00:56:34;58.23;;;33.07;;
20776;SDS011;10548;47.504;8.248;2022-12-18T00:59:13;62.70;;;35.67;;
20776;SDS011;10548;47.504;8.248;2022-12-18T01:01:40;62.13;;;36.10;;
20776;SDS011;10548;47.504;8.248;2022-12-18T01:04:08;65.43;;;36.20;;
20776;SDS011;10548;47.504;8.248;2022-12-18T01:06:36;62.40;;;33.87;;
20776;SDS011;10548;47.504;8.248;2022-12-18T01:09:03;67.73;;;37.80;;
20776;SDS011;10548;47.504;8.248;2022-12-18T01:11:30;62.53;;;34.80;;
20776;SDS011;10548;47.504;8.248;2022-12-18T01:13:59;59.40;;;35.23;;
20776;SDS011;10548;47.504;8.248;2022-12-18T01:16:26;64.37;;;35.60;;
20776;SDS011;10548;47.504;8.248;2022-12-18T01:18:53;67.10;;;37.23;;
20776;SDS011;10548;47.504;8.248;2022-12-18T01:21:21;62.13;;;34.53;;
20776;SDS011;10548;47.504;8.248;2022-12-18T01:23:53;63.33;;;36.20;;
20776;SDS011;10548;47.504;8.248;2022-12-18T01:26:22;64.77;;;35.20;;
20776;SDS011;10548;47.504;8.248;2022-12-18T01:28:50;67.90;;;37.90;;
20776;SDS011;10548;47.504;8.248;2022-12-18T01:31:28;66.80;;;36.83;;
20776;SDS011;10548;47.504;8.248;2022-12-18T01:33:57;64.80;;;36.40;;
20776;SDS011;10548;47.504;8.248;2022-12-18T01:36:28;61.27;;;36.57;;
20776;SDS011;10548;47.504;8.248;2022-12-18T01:39:02;62.03;;;35.17;;
20776;SDS011;10548;47.504;8.248;2022-12-18T01:41:32;63.53;;;36.03;;
20776;SDS011;10548;47.504;8.248;2022-12-18T01:47:32;65.40;;;36.07;;
20776;SDS011;10548;47.504;8.248;2022-12-18T01:50:32;66.93;;;35.50;;
20776;SDS011;10548;47.504;8.248;2022-12-18T01:53:06;62.37;;;37.27;;
20776;SDS011;10548;47.504;8.248;2022-12-18T01:55:42;68.60;;;37.57;;
20776;SDS011;10548;47.504;8.248;2022-12-18T01:58:29;59.90;;;34.80;;
20776;SDS011;10548;47.504;8.248;2022-12-18T02:01:08;66.00;;;38.13;;
20776;SDS011;10548;47.504;8.248;2022-12-18T02:03:44;65.53;;;37.00;;
20776;SDS011;10548;47.504;8.248;2022-12-18T02:12:24;72.07;;;38.77;;
20776;SDS011;10548;47.504;8.248;2022-12-18T02:15:24;70.50;;;38.33;;
20776;SDS011;10548;47.504;8.248;2022-12-18T02:21:04;68.07;;;35.53;;
20776;SDS011;10548;47.504;8.248;2022-12-18T02:24:16;68.53;;;37.47;;
20776;SDS011;10548;47.504;8.248;2022-12-18T02:27:06;71.43;;;40.03;;
20776;SDS011;10548;47.504;8.248;2022-12-18T02:29:37;69.87;;;39.83;;
20776;SDS011;10548;47.504;8.248;2022-12-18T02:32:11;73.20;;;40.10;;
20776;SDS011;10548;47.504;8.248;2022-12-18T02:34:42;73.57;;;40.03;;
20776;SDS011;10548;47.504;8.248;2022-12-18T02:37:15;74.00;;;41.37;;
20776;SDS011;10548;47.504;8.248;2022-12-18T02:39:47;74.93;;;41.50;;
20776;SDS011;10548;47.504;8.248;2022-12-18T02:42:16;78.40;;;42.47;;
20776;SDS011;10548;47.504;8.248;2022-12-18T02:44:48;76.13;;;40.10;;
20776;SDS011;10548;47.504;8.248;2022-12-18T02:47:24;78.27;;;42.40;;
20776;SDS011;10548;47.504;8.248;2022-12-18T02:50:02;72.17;;;38.73;;
20776;SDS011;10548;47.504;8.248;2022-12-18T02:53:06;74.63;;;40.50;;
20776;SDS011;10548;47.504;8.248;2022-12-18T02:58:55;72.67;;;39.73;;
20776;SDS011;10548;47.504;8.248;2022-12-18T03:03:05;76.70;;;40.57;;
20776;SDS011;10548;47.504;8.248;2022-12-18T03:06:19;72.10;;;39.53;;
20776;SDS011;10548;47.504;8.248;2022-12-18T03:07:56;77.97;;;41.00;;
20776;SDS011;10548;47.504;8.248;2022-12-18T03:10:34;77.30;;;41.17;;
20776;SDS011;10548;47.504;8.248;2022-12-18T03:13:06;81.47;;;42.70;;
20776;SDS011;10548;47.504;8.248;2022-12-18T03:15:44;78.67;;;43.27;;
20776;SDS011;10548;47.504;8.248;2022-12-18T03:18:18;83.00;;;42.80;;
20776;SDS011;10548;47.504;8.248;2022-12-18T03:20:51;71.80;;;39.90;;
20776;SDS011;10548;47.504;8.248;2022-12-18T03:23:23;83.93;;;42.33;;
20776;SDS011;10548;47.504;8.248;2022-12-18T03:25:55;76.83;;;41.10;;
20776;SDS011;10548;47.504;8.248;2022-12-18T03:28:35;74.57;;;38.70;;
20776;SDS011;10548;47.504;8.248;2022-12-18T03:31:08;80.03;;;42.70;;
20776;SDS011;10548;47.504;8.248;2022-12-18T03:33:39;88.27;;;46.07;;
20776;SDS011;10548;47.504;8.248;2022-12-18T03:36:14;83.73;;;44.53;;
20776;SDS011;10548;47.504;8.248;2022-12-18T03:38:41;86.97;;;44.50;;
20776;SDS011;10548;47.504;8.248;2022-12-18T03:44:28;88.67;;;44.70;;
20776;SDS011;10548;47.504;8.248;2022-12-18T03:47:09;88.70;;;44.37;;
20776;SDS011;10548;47.504;8.248;2022-12-18T03:49:47;83.47;;;44.67;;
20776;SDS011;10548;47.504;8.248;2022-12-18T03:52:25;80.27;;;42.87;;
20776;SDS011;10548;47.504;8.248;2022-12-18T03:54:56;82.13;;;43.70;;
20776;SDS011;10548;47.504;8.248;2022-12-18T03:57:27;91.97;;;46.90;;
20776;SDS011;10548;47.504;8.248;2022-12-18T03:59:57;82.30;;;42.90;;
20776;SDS011;10548;47.504;8.248;2022-12-18T04:02:40;92.93;;;47.23;;
20776;SDS011;10548;47.504;8.248;2022-12-18T04:05:16;85.20;;;43.97;;
20776;SDS011;10548;47.504;8.248;2022-12-18T04:07:45;90.40;;;45.47;;
20776;SDS011;10548;47.504;8.248;2022-12-18T04:10:14;79.90;;;40.10;;
20776;SDS011;10548;47.504;8.248;2022-12-18T04:12:43;83.57;;;42.67;;
20776;SDS011;10548;47.504;8.248;2022-12-18T04:15:12;89.90;;;46.23;;
20776;SDS011;10548;47.504;8.248;2022-12-18T04:17:45;85.03;;;43.50;;
20776;SDS011;10548;47.504;8.248;2022-12-18T04:20:17;92.67;;;44.97;;
20776;SDS011;10548;47.504;8.248;2022-12-18T04:22:45;91.00;;;46.47;;
20776;SDS011;10548;47.504;8.248;2022-12-18T04:25:13;90.43;;;45.40;;
20776;SDS011;10548;47.504;8.248;2022-12-18T04:27:52;89.53;;;45.37;;
20776;SDS011;10548;47.504;8.248;2022-12-18T04:30:19;89.30;;;45.07;;
20776;SDS011;10548;47.504;8.248;2022-12-18T04:32:46;92.03;;;46.23;;
20776;SDS011;10548;47.504;8.248;2022-12-18T04:35:18;87.67;;;45.23;;
20776;SDS011;10548;47.504;8.248;2022-12-18T04:37:45;88.17;;;46.47;;
20776;SDS011;10548;47.504;8.248;2022-12-18T04:40:14;95.67;;;47.63;;
20776;SDS011;10548;47.504;8.248;2022-12-18T04:42:44;87.73;;;45.77;;
20776;SDS011;10548;47.504;8.248;2022-12-18T04:45:11;94.47;;;47.17;;
20776;SDS011;10548;47.504;8.248;2022-12-18T04:47:38;92.40;;;48.27;;
20776;SDS011;10548;47.504;8.248;2022-12-18T04:50:06;87.07;;;45.60;;
20776;SDS011;10548;47.504;8.248;2022-12-18T04:52:33;83.43;;;45.40;;
20776;SDS011;10548;47.504;8.248;2022-12-18T04:55:00;93.47;;;48.83;;
20776;SDS011;10548;47.504;8.248;2022-12-18T04:57:27;103.93;;;48.80;;
20776;SDS011;10548;47.504;8.248;2022-12-18T04:59:54;98.23;;;49.90;;
20776;SDS011;10548;47.504;8.248;2022-12-18T05:02:22;95.03;;;46.60;;
20776;SDS011;10548;47.504;8.248;2022-12-18T05:04:49;100.53;;;48.07;;
20776;SDS011;10548;47.504;8.248;2022-12-18T05:07:16;97.53;;;48.17;;
20776;SDS011;10548;47.504;8.248;2022-12-18T05:09:43;91.00;;;46.30;;
20776;SDS011;10548;47.504;8.248;2022-12-18T05:12:10;92.77;;;46.90;;
20776;SDS011;10548;47.504;8.248;2022-12-18T05:14:37;94.97;;;47.50;;
20776;SDS011;10548;47.504;8.248;2022-12-18T05:17:04;93.00;;;46.67;;
20776;SDS011;10548;47.504;8.248;2022-12-18T05:19:31;93.33;;;47.40;;
20776;SDS011;10548;47.504;8.248;2022-12-18T05:21:58;101.00;;;48.87;;
20776;SDS011;10548;47.504;8.248;2022-12-18T05:24:26;84.13;;;42.40;;
20776;SDS011;10548;47.504;8.248;2022-12-18T05:26:53;88.30;;;42.93;;
20776;SDS011;10548;47.504;8.248;2022-12-18T05:29:20;78.00;;;39.07;;
20776;SDS011;10548;47.504;8.248;2022-12-18T05:31:47;82.13;;;42.67;;
20776;SDS011;10548;47.504;8.248;2022-12-18T05:34:14;83.27;;;41.63;;
20776;SDS011;10548;47.504;8.248;2022-12-18T05:36:41;78.67;;;39.63;;
20776;SDS011;10548;47.504;8.248;2022-12-18T05:39:09;82.97;;;40.67;;
20776;SDS011;10548;47.504;8.248;2022-12-18T05:41:37;83.77;;;40.67;;
20776;SDS011;10548;47.504;8.248;2022-12-18T05:44:04;69.83;;;36.43;;
20776;SDS011;10548;47.504;8.248;2022-12-18T05:46:31;67.43;;;35.23;;
20776;SDS011;10548;47.504;8.248;2022-12-18T05:48:59;75.57;;;38.47;;
20776;SDS011;10548;47.504;8.248;2022-12-18T05:51:27;83.27;;;40.70;;
20776;SDS011;10548;47.504;8.248;2022-12-18T05:53:54;80.33;;;41.13;;
20776;SDS011;10548;47.504;8.248;2022-12-18T05:56:21;78.77;;;39.20;;
20776;SDS011;10548;47.504;8.248;2022-12-18T05:58:52;79.87;;;40.20;;
20776;SDS011;10548;47.504;8.248;2022-12-18T06:01:21;87.63;;;42.57;;
20776;SDS011;10548;47.504;8.248;2022-12-18T06:03:52;86.87;;;42.60;;
20776;SDS011;10548;47.504;8.248;2022-12-18T06:06:22;89.80;;;43.53;;
20776;SDS011;10548;47.504;8.248;2022-12-18T06:08:51;90.60;;;42.73;;
20776;SDS011;10548;47.504;8.248;2022-12-18T06:11:20;79.87;;;38.97;;
20776;SDS011;10548;47.504;8.248;2022-12-18T06:13:50;78.20;;;39.77;;
20776;SDS011;10548;47.504;8.248;2022-12-18T06:16:23;87.07;;;42.53;;
20776;SDS011;10548;47.504;8.248;2022-12-18T06:18:50;87.53;;;41.60;;
20776;SDS011;10548;47.504;8.248;2022-12-18T06:21:18;88.33;;;41.90;;
20776;SDS011;10548;47.504;8.248;2022-12-18T06:23:45;78.50;;;39.00;;
20776;SDS011;10548;47.504;8.248;2022-12-18T06:26:12;79.43;;;41.33;;
20776;SDS011;10548;47.504;8.248;2022-12-18T06:28:40;82.40;;;39.40;;
20776;SDS011;10548;47.504;8.248;2022-12-18T06:31:07;79.23;;;39.57;;
20776;SDS011;10548;47.504;8.248;2022-12-18T06:33:35;75.77;;;38.10;;
20776;SDS011;10548;47.504;8.248;2022-12-18T06:36:08;77.33;;;38.37;;
20776;SDS011;10548;47.504;8.248;2022-12-18T06:38:40;71.07;;;36.17;;
20776;SDS011;10548;47.504;8.248;2022-12-18T06:43:46;82.17;;;40.10;;
20776;SDS011;10548;47.504;8.248;2022-12-18T06:46:13;101.13;;;48.13;;
20776;SDS011;10548;47.504;8.248;2022-12-18T06:48:40;87.07;;;40.73;;
20776;SDS011;10548;47.504;8.248;2022-12-18T06:51:07;94.37;;;43.50;;
20776;SDS011;10548;47.504;8.248;2022-12-18T06:53:35;75.57;;;35.87;;
20776;SDS011;10548;47.504;8.248;2022-12-18T06:56:03;74.60;;;36.47;;
20776;SDS011;10548;47.504;8.248;2022-12-18T06:58:36;83.10;;;41.10;;
20776;SDS011;10548;47.504;8.248;2022-12-18T07:01:04;67.70;;;35.30;;
20776;SDS011;10548;47.504;8.248;2022-12-18T07:03:33;71.17;;;36.50;;
20776;SDS011;10548;47.504;8.248;2022-12-18T07:06:00;69.40;;;35.33;;
20776;SDS011;10548;47.504;8.248;2022-12-18T07:08:28;86.87;;;42.87;;
20776;SDS011;10548;47.504;8.248;2022-12-18T07:10:56;99.87;;;47.17;;
20776;SDS011;10548;47.504;8.248;2022-12-18T07:13:23;84.60;;;41.67;;
20776;SDS011;10548;47.504;8.248;2022-12-18T07:15:51;85.27;;;41.90;;
20776;SDS011;10548;47.504;8.248;2022-12-18T07:18:18;91.70;;;48.95;;
20776;SDS011;10548;47.504;8.248;2022-12-18T07:20:45;70.10;;;36.47;;
20776;SDS011;10548;47.504;8.248;2022-12-18T07:23:13;65.53;;;32.50;;
20776;SDS011;10548;47.504;8.248;2022-12-18T07:25:40;69.70;;;35.03;;
20776;SDS011;10548;47.504;8.248;2022-12-18T07:28:08;62.63;;;32.73;;
20776;SDS011;10548;47.504;8.248;2022-12-18T07:30:42;67.50;;;32.80;;
20776;SDS011;10548;47.504;8.248;2022-12-18T07:33:10;62.73;;;31.97;;
20776;SDS011;10548;47.504;8.248;2022-12-18T07:35:37;60.50;;;30.10;;
20776;SDS011;10548;47.504;8.248;2022-12-18T07:38:04;56.77;;;30.67;;
20776;SDS011;10548;47.504;8.248;2022-12-18T07:40:31;62.73;;;31.00;;
20776;SDS011;10548;47.504;8.248;2022-12-18T07:42:59;57.17;;;30.23;;
20776;SDS011;10548;47.504;8.248;2022-12-18T07:45:26;66.00;;;34.57;;
20776;SDS011;10548;47.504;8.248;2022-12-18T07:47:53;67.10;;;33.10;;
20776;SDS011;10548;47.504;8.248;2022-12-18T07:50:20;65.90;;;33.87;;
20776;SDS011;10548;47.504;8.248;2022-12-18T07:52:47;64.13;;;33.60;;
20776;SDS011;10548;47.504;8.248;2022-12-18T07:55:14;67.80;;;33.30;;
20776;SDS011;10548;47.504;8.248;2022-12-18T07:57:42;64.00;;;33.20;;
20776;SDS011;10548;47.504;8.248;2022-12-18T08:00:20;64.37;;;33.13;;
20776;SDS011;10548;47.504;8.248;2022-12-18T08:02:48;56.67;;;29.77;;
20776;SDS011;10548;47.504;8.248;2022-12-18T08:05:15;57.50;;;29.60;;
20776;SDS011;10548;47.504;8.248;2022-12-18T08:07:43;53.67;;;29.80;;
20776;SDS011;10548;47.504;8.248;2022-12-18T08:10:10;53.13;;;28.63;;
20776;SDS011;10548;47.504;8.248;2022-12-18T08:12:37;54.83;;;29.40;;
20776;SDS011;10548;47.504;8.248;2022-12-18T08:15:05;55.23;;;28.73;;
20776;SDS011;10548;47.504;8.248;2022-12-18T08:17:33;56.17;;;30.13;;
20776;SDS011;10548;47.504;8.248;2022-12-18T08:20:00;56.17;;;29.30;;
20776;SDS011;10548;47.504;8.248;2022-12-18T08:22:28;50.30;;;26.47;;
20776;SDS011;10548;47.504;8.248;2022-12-18T08:24:55;53.83;;;28.33;;
20776;SDS011;10548;47.504;8.248;2022-12-18T08:27:23;53.47;;;28.90;;
20776;SDS011;10548;47.504;8.248;2022-12-18T08:29:55;57.43;;;30.23;;
20776;SDS011;10548;47.504;8.248;2022-12-18T08:32:24;54.63;;;28.30;;
20776;SDS011;10548;47.504;8.248;2022-12-18T08:34:52;55.33;;;28.40;;
20776;SDS011;10548;47.504;8.248;2022-12-18T08:37:19;52.97;;;27.43;;
20776;SDS011;10548;47.504;8.248;2022-12-18T08:39:46;47.93;;;25.67;;
20776;SDS011;10548;47.504;8.248;2022-12-18T08:42:13;56.10;;;29.70;;
20776;SDS011;10548;47.504;8.248;2022-12-18T08:44:59;53.37;;;29.30;;
20776;SDS011;10548;47.504;8.248;2022-12-18T08:47:26;58.40;;;31.10;;
20776;SDS011;10548;47.504;8.248;2022-12-18T08:49:54;61.80;;;30.87;;
20776;SDS011;10548;47.504;8.248;2022-12-18T08:52:21;60.20;;;31.90;;
20776;SDS011;10548;47.504;8.248;2022-12-18T08:54:48;55.27;;;29.67;;
20776;SDS011;10548;47.504;8.248;2022-12-18T08:57:16;59.63;;;29.50;;
20776;SDS011;10548;47.504;8.248;2022-12-18T08:59:43;55.93;;;29.00;;
20776;SDS011;10548;47.504;8.248;2022-12-18T09:02:11;49.97;;;25.93;;
20776;SDS011;10548;47.504;8.248;2022-12-18T09:04:38;50.50;;;27.60;;
20776;SDS011;10548;47.504;8.248;2022-12-18T09:07:06;52.57;;;29.27;;
20776;SDS011;10548;47.504;8.248;2022-12-18T09:09:33;52.10;;;28.27;;
20776;SDS011;10548;47.504;8.248;2022-12-18T09:12:00;48.10;;;26.37;;
20776;SDS011;10548;47.504;8.248;2022-12-18T09:14:28;54.47;;;27.13;;
20776;SDS011;10548;47.504;8.248;2022-12-18T09:16:55;54.17;;;27.40;;
20776;SDS011;10548;47.504;8.248;2022-12-18T09:19:22;54.90;;;28.00;;
20776;SDS011;10548;47.504;8.248;2022-12-18T09:21:49;52.23;;;26.73;;
20776;SDS011;10548;47.504;8.248;2022-12-18T09:24:16;55.60;;;26.20;;
20776;SDS011;10548;47.504;8.248;2022-12-18T09:26:44;50.47;;;26.03;;
20776;SDS011;10548;47.504;8.248;2022-12-18T09:29:13;48.43;;;25.97;;
20776;SDS011;10548;47.504;8.248;2022-12-18T09:31:43;50.83;;;26.57;;
20776;SDS011;10548;47.504;8.248;2022-12-18T09:34:10;47.13;;;25.20;;
20776;SDS011;10548;47.504;8.248;2022-12-18T09:36:38;47.97;;;25.23;;
20776;SDS011;10548;47.504;8.248;2022-12-18T09:39:05;45.33;;;24.83;;
20776;SDS011;10548;47.504;8.248;2022-12-18T09:41:39;49.57;;;25.10;;
20776;SDS011;10548;47.504;8.248;2022-12-18T09:47:08;44.93;;;24.17;;
20776;SDS011;10548;47.504;8.248;2022-12-18T09:49:58;43.43;;;23.70;;
20776;SDS011;10548;47.504;8.248;2022-12-18T09:52:32;43.80;;;23.43;;
20776;SDS011;10548;47.504;8.248;2022-12-18T09:58:07;44.17;;;23.03;;
20776;SDS011;10548;47.504;8.248;2022-12-18T10:00:59;44.17;;;24.23;;
20776;SDS011;10548;47.504;8.248;2022-12-18T10:03:26;46.03;;;25.00;;
20776;SDS011;10548;47.504;8.248;2022-12-18T10:06:13;45.63;;;22.20;;
20776;SDS011;10548;47.504;8.248;2022-12-18T10:12:04;45.70;;;23.83;;
20776;SDS011;10548;47.504;8.248;2022-12-18T10:14:54;43.80;;;23.17;;
20776;SDS011;10548;47.504;8.248;2022-12-18T10:17:54;44.33;;;24.20;;
20776;SDS011;10548;47.504;8.248;2022-12-18T10:20:39;41.10;;;23.00;;
20776;SDS011;10548;47.504;8.248;2022-12-18T10:26:23;39.37;;;23.00;;
20776;SDS011;10548;47.504;8.248;2022-12-18T10:28:51;37.70;;;22.33;;
20776;SDS011;10548;47.504;8.248;2022-12-18T10:31:21;38.57;;;21.80;;
20776;SDS011;10548;47.504;8.248;2022-12-18T10:33:50;44.73;;;24.33;;
20776;SDS011;10548;47.504;8.248;2022-12-18T10:36:22;46.40;;;23.60;;
20776;SDS011;10548;47.504;8.248;2022-12-18T10:38:51;44.20;;;23.07;;
20776;SDS011;10548;47.504;8.248;2022-12-18T10:44:10;41.80;;;23.07;;
20776;SDS011;10548;47.504;8.248;2022-12-18T10:46:53;42.57;;;23.67;;
20776;SDS011;10548;47.504;8.248;2022-12-18T10:49:28;42.57;;;23.60;;
20776;SDS011;10548;47.504;8.248;2022-12-18T10:52:11;43.63;;;22.93;;
20776;SDS011;10548;47.504;8.248;2022-12-18T10:54:54;40.80;;;22.73;;
20776;SDS011;10548;47.504;8.248;2022-12-18T10:57:35;41.30;;;22.50;;
20776;SDS011;10548;47.504;8.248;2022-12-18T11:02:51;41.87;;;22.13;;
20776;SDS011;10548;47.504;8.248;2022-12-18T11:05:23;43.13;;;23.30;;
20776;SDS011;10548;47.504;8.248;2022-12-18T11:07:58;44.70;;;23.40;;
20776;SDS011;10548;47.504;8.248;2022-12-18T11:10:31;40.33;;;22.83;;
20776;SDS011;10548;47.504;8.248;2022-12-18T11:13:10;40.83;;;22.93;;
20776;SDS011;10548;47.504;8.248;2022-12-18T11:15:42;41.07;;;22.30;;
20776;SDS011;10548;47.504;8.248;2022-12-18T11:18:27;44.23;;;23.90;;
20776;SDS011;10548;47.504;8.248;2022-12-18T11:20:57;42.73;;;23.37;;
20776;SDS011;10548;47.504;8.248;2022-12-18T11:23:27;44.83;;;23.67;;
20776;SDS011;10548;47.504;8.248;2022-12-18T11:25:55;41.67;;;23.37;;
20776;SDS011;10548;47.504;8.248;2022-12-18T11:28:40;47.00;;;23.37;;
20776;SDS011;10548;47.504;8.248;2022-12-18T11:31:33;42.60;;;23.37;;
20776;SDS011;10548;47.504;8.248;2022-12-18T11:34:02;44.17;;;24.00;;
20776;SDS011;10548;47.504;8.248;2022-12-18T11:36:55;42.93;;;22.50;;
20776;SDS011;10548;47.504;8.248;2022-12-18T11:39:36;43.43;;;23.50;;
20776;SDS011;10548;47.504;8.248;2022-12-18T11:42:25;44.23;;;22.87;;
20776;SDS011;10548;47.504;8.248;2022-12-18T11:48:22;48.37;;;23.03;;
20776;SDS011;10548;47.504;8.248;2022-12-18T11:50:57;43.17;;;22.83;;
20776;SDS011;10548;47.504;8.248;2022-12-18T11:53:26;41.30;;;23.40;;
20776;SDS011;10548;47.504;8.248;2022-12-18T11:56:02;43.10;;;23.00;;
20776;SDS011;10548;47.504;8.248;2022-12-18T11:58:59;41.70;;;22.20;;
20776;SDS011;10548;47.504;8.248;2022-12-18T12:03:20;40.47;;;21.67;;
20776;SDS011;10548;47.504;8.248;2022-12-18T12:08:26;41.17;;;22.20;;
20776;SDS011;10548;47.504;8.248;2022-12-18T12:12:30;43.50;;;21.67;;
20776;SDS011;10548;47.504;8.248;2022-12-18T12:14:54;35.80;;;21.13;;
20776;SDS011;10548;47.504;8.248;2022-12-18T12:17:45;41.20;;;21.93;;
20776;SDS011;10548;47.504;8.248;2022-12-18T12:20:46;35.17;;;20.70;;
20776;SDS011;10548;47.504;8.248;2022-12-18T12:23:36;36.13;;;20.63;;
20776;SDS011;10548;47.504;8.248;2022-12-18T12:26:16;39.67;;;23.00;;
20776;SDS011;10548;47.504;8.248;2022-12-18T12:29:09;40.10;;;21.53;;
20776;SDS011;10548;47.504;8.248;2022-12-18T12:38:52;39.93;;;21.67;;
20776;SDS011;10548;47.504;8.248;2022-12-18T12:41:32;38.87;;;21.00;;
20776;SDS011;10548;47.504;8.248;2022-12-18T12:44:19;39.03;;;20.50;;
20776;SDS011;10548;47.504;8.248;2022-12-18T12:47:04;37.43;;;20.67;;
20776;SDS011;10548;47.504;8.248;2022-12-18T12:49:53;39.60;;;21.63;;
20776;SDS011;10548;47.504;8.248;2022-12-18T12:52:29;34.70;;;19.90;;
20776;SDS011;10548;47.504;8.248;2022-12-18T12:55:07;38.80;;;21.10;;
20776;SDS011;10548;47.504;8.248;2022-12-18T12:57:59;40.33;;;20.93;;
20776;SDS011;10548;47.504;8.248;2022-12-18T13:00:47;36.07;;;20.00;;
20776;SDS011;10548;47.504;8.248;2022-12-18T13:03:45;39.43;;;21.63;;
20776;SDS011;10548;47.504;8.248;2022-12-18T13:06:40;36.40;;;19.90;;
20776;SDS011;10548;47.504;8.248;2022-12-18T13:13:11;37.60;;;20.20;;
20776;SDS011;10548;47.504;8.248;2022-12-18T13:15:50;37.73;;;20.63;;
20776;SDS011;10548;47.504;8.248;2022-12-18T13:18:33;37.90;;;19.70;;
20776;SDS011;10548;47.504;8.248;2022-12-18T13:21:12;35.57;;;19.67;;
20776;SDS011;10548;47.504;8.248;2022-12-18T13:24:25;35.53;;;19.43;;
20776;SDS011;10548;47.504;8.248;2022-12-18T13:26:54;35.60;;;19.37;;
20776;SDS011;10548;47.504;8.248;2022-12-18T13:29:55;35.17;;;18.97;;
20776;SDS011;10548;47.504;8.248;2022-12-18T13:32:22;39.17;;;21.23;;
20776;SDS011;10548;47.504;8.248;2022-12-18T13:38:20;37.70;;;20.53;;
20776;SDS011;10548;47.504;8.248;2022-12-18T13:41:23;44.13;;;20.20;;
20776;SDS011;10548;47.504;8.248;2022-12-18T13:43:53;34.70;;;19.57;;
20776;SDS011;10548;47.504;8.248;2022-12-18T13:46:47;36.40;;;20.13;;
20776;SDS011;10548;47.504;8.248;2022-12-18T13:49:21;38.53;;;20.40;;
20776;SDS011;10548;47.504;8.248;2022-12-18T13:52:22;38.10;;;20.87;;
20776;SDS011;10548;47.504;8.248;2022-12-18T13:54:55;38.43;;;21.30;;
20776;SDS011;10548;47.504;8.248;2022-12-18T13:57:31;41.97;;;22.73;;
20776;SDS011;10548;47.504;8.248;2022-12-18T14:00:24;36.43;;;20.70;;
20776;SDS011;10548;47.504;8.248;2022-12-18T14:02:55;39.27;;;21.33;;
20776;SDS011;10548;47.504;8.248;2022-12-18T14:05:27;36.13;;;19.87;;
20776;SDS011;10548;47.504;8.248;2022-12-18T14:08:08;38.37;;;20.63;;
20776;SDS011;10548;47.504;8.248;2022-12-18T14:10:41;37.10;;;20.47;;
20776;SDS011;10548;47.504;8.248;2022-12-18T14:16:14;33.83;;;18.27;;
20776;SDS011;10548;47.504;8.248;2022-12-18T14:18:53;39.87;;;21.43;;
20776;SDS011;10548;47.504;8.248;2022-12-18T14:21:28;36.90;;;20.37;;
20776;SDS011;10548;47.504;8.248;2022-12-18T14:26:51;38.90;;;20.57;;
20776;SDS011;10548;47.504;8.248;2022-12-18T14:29:23;40.57;;;20.90;;
20776;SDS011;10548;47.504;8.248;2022-12-18T14:32:11;38.97;;;21.07;;
20776;SDS011;10548;47.504;8.248;2022-12-18T14:34:53;41.03;;;21.23;;
20776;SDS011;10548;47.504;8.248;2022-12-18T14:37:22;38.40;;;20.47;;
20776;SDS011;10548;47.504;8.248;2022-12-18T14:39:58;41.70;;;20.77;;
20776;SDS011;10548;47.504;8.248;2022-12-18T14:42:36;41.60;;;22.17;;
20776;SDS011;10548;47.504;8.248;2022-12-18T14:48:33;43.60;;;23.00;;
20776;SDS011;10548;47.504;8.248;2022-12-18T14:51:16;44.00;;;23.17;;
20776;SDS011;10548;47.504;8.248;2022-12-18T14:53:47;42.23;;;22.40;;
20776;SDS011;10548;47.504;8.248;2022-12-18T14:56:25;42.40;;;23.00;;
20776;SDS011;10548;47.504;8.248;2022-12-18T14:58:59;41.40;;;22.50;;
20776;SDS011;10548;47.504;8.248;2022-12-18T15:01:57;43.57;;;23.80;;
20776;SDS011;10548;47.504;8.248;2022-12-18T15:04:46;48.20;;;23.77;;
20776;SDS011;10548;47.504;8.248;2022-12-18T15:07:14;46.47;;;23.90;;
20776;SDS011;10548;47.504;8.248;2022-12-18T15:15:48;47.70;;;24.30;;
20776;SDS011;10548;47.504;8.248;2022-12-18T15:18:16;49.73;;;24.87;;
20776;SDS011;10548;47.504;8.248;2022-12-18T15:20:55;50.23;;;25.27;;
20776;SDS011;10548;47.504;8.248;2022-12-18T15:23:35;50.63;;;25.30;;
20776;SDS011;10548;47.504;8.248;2022-12-18T15:26:14;48.90;;;25.10;;
20776;SDS011;10548;47.504;8.248;2022-12-18T15:28:44;51.87;;;26.00;;
20776;SDS011;10548;47.504;8.248;2022-12-18T15:31:21;46.97;;;24.60;;
20776;SDS011;10548;47.504;8.248;2022-12-18T15:34:00;49.87;;;25.80;;
20776;SDS011;10548;47.504;8.248;2022-12-18T15:36:38;45.77;;;24.27;;
20776;SDS011;10548;47.504;8.248;2022-12-18T15:39:06;50.73;;;25.17;;
20776;SDS011;10548;47.504;8.248;2022-12-18T15:41:37;49.63;;;25.93;;
20776;SDS011;10548;47.504;8.248;2022-12-18T15:44:23;53.23;;;26.83;;
20776;SDS011;10548;47.504;8.248;2022-12-18T15:46:52;46.87;;;23.70;;
20776;SDS011;10548;47.504;8.248;2022-12-18T15:49:19;51.20;;;25.70;;
20776;SDS011;10548;47.504;8.248;2022-12-18T15:51:47;48.40;;;25.00;;
20776;SDS011;10548;47.504;8.248;2022-12-18T15:54:39;52.17;;;25.37;;
20776;SDS011;10548;47.504;8.248;2022-12-18T15:57:24;45.60;;;24.80;;
20776;SDS011;10548;47.504;8.248;2022-12-18T15:59:52;52.40;;;26.53;;
20776;SDS011;10548;47.504;8.248;2022-12-18T16:02:22;53.17;;;31.83;;
20776;SDS011;10548;47.504;8.248;2022-12-18T16:04:51;48.67;;;26.07;;
20776;SDS011;10548;47.504;8.248;2022-12-18T16:07:20;47.90;;;24.77;;
20776;SDS011;10548;47.504;8.248;2022-12-18T16:09:50;48.30;;;24.27;;
20776;SDS011;10548;47.504;8.248;2022-12-18T16:12:19;47.27;;;25.43;;
20776;SDS011;10548;47.504;8.248;2022-12-18T16:14:49;47.83;;;23.77;;
20776;SDS011;10548;47.504;8.248;2022-12-18T16:17:17;46.83;;;25.03;;